KCCA/CCA METAR and TAF weather

Enter ICAO airport designator
Station Type Date Time Source
KCCA METAR 2021/07/28 05:15 UTC NOAA

KCCA 280515Z AUTO 00000KT 1/2SM FG 25/25 A3004 RMK AO2


Station Type Date Time Source
KCCA Decoded METAR 2021/07/28 05:15 UTC NOAA

Station name not available
Jul 28, 2021 - 01:15 AM EDT / 2021.07.28 0515 UTC
Wind: Calm:0
Visibility: 1/2 mile(s):0
Weather: fog
Temperature: 77 F (25 C)
Dew Point: 77 F (25 C)
Relative Humidity: 100%
Pressure (altimeter): 30.04 in. Hg (1017 hPa)
ob: KCCA 280515Z AUTO 00000KT 1/2SM FG 25/25 A3004 RMK AO2
cycle: 5

Station Type Date Time Source
KCCA TAF UTC NOAA

Error!

Example: see airport list